createdAt,value
2023-04-10T00:00:01.244Z,99702.34
2023-04-10T00:04:20.031Z,99703.25
2023-04-10T00:08:38.262Z,99704.06
2023-04-10T00:12:56.309Z,99705.22
2023-04-10T00:16:55.888Z,99685.91
2023-04-10T00:21:14.472Z,99674.63
2023-04-10T00:25:32.991Z,99681.91
2023-04-10T00:29:32.919Z,99701.09
2023-04-10T00:33:52.091Z,99709.34
2023-04-10T00:38:10.804Z,99712.28
2023-04-10T00:42:29.237Z,99703.69
2023-04-10T00:46:47.604Z,99697.56
2023-04-10T00:50:46.901Z,99692.53
2023-04-10T00:55:05.788Z,99689.59
2023-04-10T00:58:29.143Z,99684.47
2023-04-10T01:01:33.653Z,99683.19
2023-04-10T01:04:39.116Z,99678.63
2023-04-10T01:08:01.984Z,99683.47
2023-04-10T01:11:28.334Z,99665.41
2023-04-10T01:14:39.240Z,99680.13
2023-04-10T01:17:55.687Z,99683.34
2023-04-10T01:21:03.571Z,99660.91
2023-04-10T01:24:42.570Z,99661.44
2023-04-10T01:28:17.130Z,99689.19
2023-04-10T01:31:42.589Z,99466.19
2023-04-10T01:34:50.678Z,99674.19
2023-04-10T01:37:56.254Z,99666.81
2023-04-10T01:41:02.490Z,99664.59
2023-04-10T01:44:10.046Z,99669.63
2023-04-10T01:47:17.972Z,99671.13
2023-04-10T01:50:26.234Z,99663.22
2023-04-10T01:53:32.417Z,99656.72
2023-04-10T01:56:37.161Z,99652.28
2023-04-10T01:59:42.013Z,99656.59
2023-04-10T02:02:46.650Z,99660.44
2023-04-10T02:06:16.635Z,99648.66
2023-04-10T02:09:50.887Z,99646.41
2023-04-10T02:13:05.086Z,99603.03
2023-04-10T02:16:11.172Z,99653.38
2023-04-10T02:19:18.274Z,99646.44
2023-04-10T02:22:24.488Z,99649.59
2023-04-10T02:25:29.253Z,99634.75
2023-04-10T02:28:33.788Z,99589.56
2023-04-10T02:31:39.285Z,99624.06
2023-04-10T02:34:47.369Z,99534.53
2023-04-10T02:37:51.928Z,99606.16
2023-04-10T02:40:57.011Z,99583.50
2023-04-10T02:44:01.871Z,99591.13
2023-04-10T02:47:08.441Z,99586.78
2023-04-10T02:50:18.212Z,99588.50
2023-04-10T02:53:24.226Z,99573.25
2023-04-10T02:56:31.834Z,99586.09
2023-04-10T02:59:36.472Z,99583.25
2023-04-10T03:02:43.228Z,99583.41
2023-04-10T03:05:53.357Z,99547.91
2023-04-10T03:09:04.061Z,99573.03
2023-04-10T03:12:09.795Z,99562.31
2023-04-10T03:15:14.058Z,99563.84
2023-04-10T03:18:18.045Z,99553.25
2023-04-10T03:21:24.075Z,99539.81
2023-04-10T03:24:27.951Z,99556.81
2023-04-10T03:27:35.545Z,99548.09
2023-04-10T03:30:40.878Z,99485.50
2023-04-10T03:33:45.860Z,99553.56
2023-04-10T03:36:50.406Z,99527.81
2023-04-10T03:39:55.196Z,99512.97
2023-04-10T03:42:59.287Z,99530.31
2023-04-10T03:46:06.964Z,99532.38
2023-04-10T03:49:17.521Z,99526.69
2023-04-10T03:52:23.385Z,99496.22
2023-04-10T03:55:27.920Z,99526.41
2023-04-10T03:58:33.121Z,99511.41
2023-04-10T04:01:37.719Z,99505.50
2023-04-10T04:04:46.567Z,99501.50
2023-04-10T04:07:58.043Z,99482.47
2023-04-10T04:11:28.649Z,99488.91
2023-04-10T04:14:36.723Z,99492.88
2023-04-10T04:17:59.032Z,99484.97
2023-04-10T04:21:15.118Z,99486.84
2023-04-10T04:24:37.924Z,99436.16
2023-04-10T04:27:52.679Z,99470.38
2023-04-10T04:31:09.791Z,99476.47
2023-04-10T04:34:46.700Z,99470.53
2023-04-10T04:38:11.292Z,99478.09
2023-04-10T04:41:36.020Z,99476.44
2023-04-10T04:44:43.341Z,99469.59
2023-04-10T04:48:19.072Z,99466.56
2023-04-10T04:51:46.503Z,99449.59
2023-04-10T04:55:04.037Z,99446.06
2023-04-10T04:58:21.261Z,99442.00
2023-04-10T05:01:38.831Z,99439.91
2023-04-10T05:04:57.439Z,99414.84
2023-04-10T05:08:18.122Z,99411.34
2023-04-10T05:11:42.687Z,99400.66
2023-04-10T05:28:29.815Z,99410.16
2023-04-10T05:31:53.480Z,99399.34
2023-04-10T05:35:29.869Z,99390.13
2023-04-10T05:38:41.043Z,99396.78
2023-04-10T05:42:11.382Z,99394.50
2023-04-10T05:45:38.920Z,99383.59
2023-04-10T05:49:03.522Z,99381.53
2023-04-10T05:52:28.934Z,99375.75
2023-04-10T05:55:52.528Z,99382.66
2023-04-10T05:59:32.065Z,99380.56
2023-04-10T06:02:57.636Z,99379.63
2023-04-10T06:06:05.233Z,99365.91
2023-04-10T06:09:09.655Z,99369.47
2023-04-10T06:12:14.207Z,99362.47
2023-04-10T06:15:18.935Z,99355.72
2023-04-10T06:18:24.393Z,99353.81
2023-04-10T06:21:28.799Z,99333.56
2023-04-10T06:24:32.973Z,99346.13
2023-04-10T06:27:37.459Z,99338.38
2023-04-10T06:30:45.551Z,99332.09
2023-04-10T06:33:50.808Z,99340.44
2023-04-10T06:36:55.123Z,99346.38
2023-04-10T06:40:11.809Z,99345.41
2023-04-10T06:43:16.119Z,99315.56
2023-04-10T06:46:20.201Z,99328.19
2023-04-10T06:49:25.042Z,99335.38
2023-04-10T06:52:29.432Z,99332.69
2023-04-10T06:55:33.746Z,99302.59
2023-04-10T06:58:38.026Z,99276.16
2023-04-10T07:01:42.559Z,99299.75
2023-04-10T07:04:47.169Z,99312.09
2023-04-10T07:07:51.800Z,99289.09
2023-04-10T07:10:58.609Z,99317.13
2023-04-10T07:14:03.722Z,99288.84
2023-04-10T07:17:08.263Z,99282.00
2023-04-10T07:20:12.852Z,99297.91
2023-04-10T07:23:17.647Z,99293.13
2023-04-10T07:26:22.371Z,99259.78
2023-04-10T07:29:27.110Z,99297.88
2023-04-10T07:32:31.796Z,99270.41
2023-04-10T07:35:37.238Z,99265.66
2023-04-10T07:38:41.480Z,99289.34
2023-04-10T07:41:45.594Z,99268.09
2023-04-10T07:44:49.512Z,99284.44
2023-04-10T07:47:54.000Z,99281.91
2023-04-10T07:50:59.765Z,99275.59
2023-04-10T07:54:07.162Z,99284.28
2023-04-10T07:57:11.045Z,99269.84
2023-04-10T08:00:15.407Z,99269.00
2023-04-10T08:03:20.052Z,99254.75
2023-04-10T08:06:24.491Z,99284.94
2023-04-10T08:09:28.904Z,99285.56
2023-04-10T08:12:35.550Z,99285.69
2023-04-10T08:15:40.004Z,99278.84
2023-04-10T08:18:44.506Z,99255.63
2023-04-10T08:21:48.549Z,99234.88
2023-04-10T08:24:52.394Z,99240.47
2023-04-10T08:27:56.542Z,99239.59
2023-04-10T08:31:00.981Z,99225.56
2023-04-10T08:34:05.450Z,99241.22
2023-04-10T08:37:13.026Z,99229.38
2023-04-10T08:40:17.601Z,99229.44
2023-04-10T08:43:21.967Z,99231.72
2023-04-10T08:46:27.303Z,99209.09
2023-04-10T08:49:57.977Z,99213.41
2023-04-10T08:53:07.367Z,99222.88
2023-04-10T08:56:17.681Z,99234.44
2023-04-10T08:59:22.695Z,99221.72
2023-04-10T09:02:26.830Z,99196.66
2023-04-10T09:05:31.631Z,99213.81
2023-04-10T09:08:36.739Z,99189.94
2023-04-10T09:11:56.908Z,99205.78
2023-04-10T09:15:01.473Z,99191.75
2023-04-10T09:18:06.366Z,99193.88
2023-04-10T09:21:16.906Z,99196.91
2023-04-10T09:24:21.048Z,99178.88
2023-04-10T09:27:40.970Z,99167.94
2023-04-10T09:30:45.666Z,99173.34
2023-04-10T09:33:50.136Z,99170.59
2023-04-10T09:36:57.625Z,99203.81
2023-04-10T09:40:02.772Z,99187.34
2023-04-10T09:43:26.622Z,99195.78
2023-04-10T09:46:31.135Z,99191.84
2023-04-10T09:49:51.290Z,99183.59
2023-04-10T09:52:59.448Z,99197.13
2023-04-10T09:56:06.147Z,99201.78
2023-04-10T09:59:11.336Z,99198.06
2023-04-10T10:02:20.278Z,99200.38
2023-04-10T10:05:31.264Z,99168.19
2023-04-10T10:08:37.709Z,99201.91
2023-04-10T10:11:41.673Z,99178.47
2023-04-10T10:15:16.569Z,99196.66
2023-04-10T10:19:05.773Z,99201.53
2023-04-10T10:22:11.937Z,99193.66
2023-04-10T10:25:16.562Z,99151.72
2023-04-10T10:28:22.374Z,99189.78
2023-04-10T10:31:33.419Z,99214.19
2023-04-10T10:34:38.773Z,99217.38
2023-04-10T10:37:46.673Z,99218.78
2023-04-10T10:41:03.747Z,99203.16
2023-04-10T10:44:44.531Z,99222.47
2023-04-10T10:47:56.612Z,99160.63
2023-04-10T10:51:02.944Z,99239.06
2023-04-10T10:54:29.645Z,99232.19
2023-04-10T10:57:55.673Z,99228.56
2023-04-10T11:01:00.876Z,99227.81
2023-04-10T11:04:45.827Z,99209.25
2023-04-10T11:08:04.401Z,99240.47
2023-04-10T11:11:13.212Z,99224.38
2023-04-10T11:14:20.179Z,99217.63
2023-04-10T11:17:52.696Z,99220.31
2023-04-10T11:21:19.627Z,99215.91
2023-04-10T11:24:25.402Z,99224.97
2023-04-10T11:27:41.411Z,99232.28
2023-04-10T11:30:48.000Z,99237.78
2023-04-10T11:34:01.446Z,99238.91
2023-04-10T11:37:07.908Z,99217.72
2023-04-10T11:40:15.405Z,99236.66
2023-04-10T11:43:19.463Z,99241.88
2023-04-10T11:46:24.033Z,99232.81
2023-04-10T11:49:32.560Z,99242.50
2023-04-10T11:52:37.666Z,99245.84
2023-04-10T11:55:42.255Z,99254.50
2023-04-10T11:58:49.602Z,99253.06
2023-04-10T12:01:57.048Z,99254.88
2023-04-10T12:05:01.978Z,99243.91
2023-04-10T12:08:07.012Z,99254.88
2023-04-10T12:11:12.281Z,99261.25
2023-04-10T12:14:17.018Z,99245.56
2023-04-10T12:17:21.952Z,99262.56
2023-04-10T12:20:29.916Z,99243.91
2023-04-10T12:23:38.200Z,99253.38
2023-04-10T12:26:52.498Z,99245.25
2023-04-10T12:29:58.800Z,99251.63
2023-04-10T12:33:06.651Z,99257.41
2023-04-10T12:36:22.996Z,99249.09
2023-04-10T12:39:27.743Z,99257.63
2023-04-10T12:42:44.833Z,99247.38
2023-04-10T12:45:49.232Z,99236.19
2023-04-10T12:48:54.270Z,99222.63
2023-04-10T12:51:58.986Z,99224.34
2023-04-10T12:55:16.821Z,99230.97
2023-04-10T12:58:28.971Z,99228.06
2023-04-10T13:01:33.427Z,99221.00
2023-04-10T13:04:39.888Z,99213.66
2023-04-10T13:07:44.119Z,99218.41
2023-04-10T13:10:48.727Z,99231.44
2023-04-10T13:13:53.586Z,99211.63
2023-04-10T13:16:57.658Z,99194.50
2023-04-10T13:20:01.976Z,99205.22
2023-04-10T13:23:07.041Z,99215.53
2023-04-10T13:26:11.725Z,99221.53
2023-04-10T13:29:18.060Z,99208.56
2023-04-10T13:32:23.757Z,99182.34
2023-04-10T13:35:28.579Z,99188.63
2023-04-10T13:38:32.374Z,99214.66
2023-04-10T13:41:36.738Z,99211.50
2023-04-10T13:44:41.388Z,99203.19
2023-04-10T13:47:45.506Z,99207.41
2023-04-10T13:50:49.794Z,99204.78
2023-04-10T13:53:53.864Z,99207.28
2023-04-10T13:56:59.972Z,99123.16
2023-04-10T14:00:05.550Z,99203.06
2023-04-10T14:03:16.694Z,99215.53
2023-04-10T14:06:21.340Z,99225.53
2023-04-10T14:09:25.573Z,99202.44
2023-04-10T14:12:29.839Z,99233.66
2023-04-10T14:15:34.783Z,99236.53
2023-04-10T14:18:38.652Z,99184.44
2023-04-10T14:21:45.268Z,99227.31
2023-04-10T14:24:51.116Z,99210.56
2023-04-10T14:27:57.198Z,99223.56
2023-04-10T14:31:01.984Z,99235.13
2023-04-10T14:34:06.184Z,99221.88
2023-04-10T14:37:10.640Z,99260.56
2023-04-10T14:40:14.784Z,99267.50
2023-04-10T14:43:20.248Z,99268.22
2023-04-10T14:46:26.403Z,99277.34
2023-04-10T14:49:30.970Z,99300.66
2023-04-10T14:52:35.722Z,99319.75
2023-04-10T14:55:39.873Z,99298.13
2023-04-10T14:58:44.701Z,99319.13
2023-04-10T15:01:49.392Z,99339.66
2023-04-10T15:04:54.197Z,99342.13
2023-04-10T15:07:58.250Z,99355.25
2023-04-10T15:11:02.875Z,99361.88
2023-04-10T15:14:08.253Z,99370.31
2023-04-10T15:17:12.999Z,99356.53
2023-04-10T15:20:17.541Z,99364.13
2023-04-10T15:23:21.571Z,99364.22
2023-04-10T15:26:25.920Z,99362.41
2023-04-10T15:29:29.809Z,99310.13
2023-04-10T15:32:34.357Z,99339.00
2023-04-10T15:35:38.326Z,99313.22
2023-04-10T15:38:42.512Z,99341.66
2023-04-10T15:41:46.514Z,99323.88
2023-04-10T15:44:50.910Z,99352.25
2023-04-10T15:47:55.306Z,99364.22
2023-04-10T15:51:00.756Z,99370.56
2023-04-10T15:54:06.154Z,99353.44
2023-04-10T15:57:11.345Z,99326.88
2023-04-10T16:00:16.499Z,99336.00
2023-04-10T16:03:21.228Z,99365.63
2023-04-10T16:06:26.875Z,99374.56
2023-04-10T16:09:31.472Z,99369.25
2023-04-10T16:12:35.441Z,99368.78
2023-04-10T16:15:40.479Z,99345.59
2023-04-10T16:18:48.143Z,99352.53
2023-04-10T16:21:52.790Z,99340.00
2023-04-10T16:24:58.055Z,99331.31
2023-04-10T16:28:08.733Z,99334.59
2023-04-10T16:31:13.487Z,99329.91
2023-04-10T16:34:17.994Z,99326.16
2023-04-10T16:37:22.643Z,99341.63
2023-04-10T16:40:33.190Z,99330.31
2023-04-10T16:43:37.526Z,99318.25
2023-04-10T16:46:42.144Z,99330.16
2023-04-10T16:50:12.342Z,99338.03
2023-04-10T16:53:17.624Z,99307.59
2023-04-10T16:56:21.660Z,99320.91
2023-04-10T16:59:26.641Z,99326.81
2023-04-10T17:02:31.438Z,99358.50
2023-04-10T17:05:38.849Z,99352.03
2023-04-10T17:08:43.411Z,99315.03
2023-04-10T17:11:47.348Z,99295.63
2023-04-10T17:14:52.906Z,99272.78
2023-04-10T17:17:57.223Z,99256.56
2023-04-10T17:21:01.694Z,99232.88
2023-04-10T17:24:06.200Z,99235.00
2023-04-10T17:27:10.414Z,99271.09
2023-04-10T17:30:15.243Z,99309.84
2023-04-10T17:33:19.597Z,99330.44
2023-04-10T17:36:23.698Z,99338.56
2023-04-10T17:39:28.604Z,99382.38
2023-04-10T17:42:33.099Z,99389.09
2023-04-10T17:45:41.459Z,99365.25
2023-04-10T17:48:46.539Z,99361.50
2023-04-10T17:51:50.845Z,99345.59
2023-04-10T17:54:55.227Z,99384.13
2023-04-10T17:57:59.967Z,99411.72
2023-04-10T18:01:04.569Z,99414.66
2023-04-10T18:04:08.809Z,99399.50
2023-04-10T18:07:13.406Z,99377.03
2023-04-10T18:10:17.830Z,99364.38
2023-04-10T18:13:21.890Z,99383.19
2023-04-10T18:16:26.862Z,99374.78
2023-04-10T18:19:31.877Z,99363.75
2023-04-10T18:22:35.755Z,99318.44
2023-04-10T18:25:39.585Z,99354.66
2023-04-10T18:28:44.401Z,99347.38
2023-04-10T18:31:48.503Z,99340.47
2023-04-10T18:34:53.074Z,99319.31
2023-04-10T18:37:57.856Z,99311.94
2023-04-10T18:41:01.830Z,99260.50
2023-04-10T18:44:06.348Z,99279.00
2023-04-10T18:47:11.815Z,99247.03
2023-04-10T18:50:16.647Z,99201.47
2023-04-10T18:53:22.034Z,99252.34
2023-04-10T18:56:26.679Z,99267.38
2023-04-10T18:59:30.824Z,99260.84
2023-04-10T19:02:35.484Z,99270.91
2023-04-10T19:05:40.202Z,99187.69
2023-04-10T19:08:44.935Z,99242.25
2023-04-10T19:11:49.511Z,99248.31
2023-04-10T19:14:53.852Z,99246.47
2023-04-10T19:17:58.177Z,99200.44
2023-04-10T19:21:03.488Z,99241.13
2023-04-10T19:24:08.318Z,99245.34
2023-04-10T19:27:13.129Z,99246.28
2023-04-10T19:30:17.688Z,99258.75
2023-04-10T19:33:22.627Z,99256.53
2023-04-10T19:36:28.269Z,99251.81
2023-04-10T19:39:32.852Z,99247.09
2023-04-10T19:42:37.470Z,99263.72
2023-04-10T19:45:42.526Z,99232.97
2023-04-10T19:48:47.382Z,99267.59
2023-04-10T19:51:51.858Z,99260.50
2023-04-10T19:54:56.514Z,99235.91
2023-04-10T19:58:01.278Z,99259.75
2023-04-10T20:01:09.588Z,99235.59
2023-04-10T20:04:14.087Z,99187.06
2023-04-10T20:07:18.493Z,99240.91
2023-04-10T20:10:23.343Z,99210.88
2023-04-10T20:13:27.613Z,99212.09
2023-04-10T20:16:31.955Z,99153.97
2023-04-10T20:19:36.199Z,99204.44
2023-04-10T20:22:40.429Z,99223.72
2023-04-10T20:25:47.127Z,99218.56
2023-04-10T20:28:51.709Z,99214.88
2023-04-10T20:31:56.408Z,99206.88
2023-04-10T20:35:01.099Z,99204.88
2023-04-10T20:38:06.710Z,99239.28
2023-04-10T20:41:11.127Z,99216.09
2023-04-10T20:44:15.847Z,99118.09
2023-04-10T20:47:19.920Z,99227.66
2023-04-10T20:50:24.377Z,99230.22
2023-04-10T20:53:30.204Z,99217.69
2023-04-10T20:56:42.794Z,99215.31
2023-04-10T20:59:48.338Z,99230.97
2023-04-10T21:02:53.191Z,99231.91
2023-04-10T21:05:58.070Z,99226.13
2023-04-10T21:09:02.507Z,99249.84
2023-04-10T21:12:07.453Z,99234.09
2023-04-10T21:15:12.438Z,99230.81
2023-04-10T21:18:16.966Z,99240.53
2023-04-10T21:21:21.561Z,99230.31
2023-04-10T21:24:25.958Z,99243.00
2023-04-10T21:27:30.289Z,99249.34
2023-04-10T21:30:34.813Z,99223.66
2023-04-10T21:33:39.184Z,99229.69
2023-04-10T21:36:43.724Z,99222.50
2023-04-10T21:39:48.159Z,99224.63
2023-04-10T21:42:54.773Z,99205.41
2023-04-10T21:46:02.695Z,99219.56
2023-04-10T21:49:08.108Z,99169.44
2023-04-10T21:52:13.204Z,99193.44
2023-04-10T21:55:17.293Z,99193.91
2023-04-10T21:58:21.479Z,99198.56
2023-04-10T22:01:29.303Z,99193.16
2023-04-10T22:04:38.928Z,99185.25
2023-04-10T22:07:49.054Z,99188.72
2023-04-10T22:10:53.269Z,99194.44
2023-04-10T22:14:00.175Z,99175.66
2023-04-10T22:17:10.381Z,99180.91
2023-04-10T22:20:14.525Z,99162.00
2023-04-10T22:23:18.394Z,99160.72
2023-04-10T22:26:25.396Z,99155.94
2023-04-10T22:29:29.675Z,99154.94
2023-04-10T22:32:34.429Z,99137.78
2023-04-10T22:35:39.346Z,99141.03
2023-04-10T22:38:43.494Z,99125.59
2023-04-10T22:41:48.565Z,99011.44
2023-04-10T22:44:52.715Z,99119.47
2023-04-10T22:47:57.446Z,99121.25
2023-04-10T22:51:01.911Z,99119.28
2023-04-10T22:54:06.568Z,99096.31
2023-04-10T22:57:11.193Z,99119.22
2023-04-10T23:00:18.130Z,99117.28
2023-04-10T23:03:22.574Z,99113.16
2023-04-10T23:06:28.094Z,99098.13
2023-04-10T23:09:32.575Z,99108.41
2023-04-10T23:12:37.304Z,99105.50
2023-04-10T23:15:41.621Z,99085.56
2023-04-10T23:18:46.151Z,99103.78
2023-04-10T23:21:51.399Z,99110.56
2023-04-10T23:24:58.871Z,99106.94
2023-04-10T23:28:04.363Z,99090.19
2023-04-10T23:31:09.885Z,99095.03
2023-04-10T23:34:14.177Z,99065.00
2023-04-10T23:37:18.689Z,99093.22
2023-04-10T23:40:22.851Z,99087.53
2023-04-10T23:43:26.643Z,99085.94
2023-04-10T23:46:31.066Z,99089.25
2023-04-10T23:49:37.942Z,99080.53
2023-04-10T23:52:41.977Z,99065.03
2023-04-10T23:55:46.328Z,99065.38
2023-04-10T23:58:51.035Z,99064.13
